Time;durP1;ratioP1;P1;durP2;ratioP2;P2;SDS_P1;SDS_P2;PMS_P1;PMS_P2;Temp;Humidity;BMP_temperature;BMP_pressure;BME280_temperature;BME280_humidity;BME280_pressure;Samples;Min_cycle;Max_cycle;Signal;HPM_P1;HPM_P2
2021/12/08 00:02:19;;;;;;;;;;;0.80;84.60;;;;;;5081247;28;19953;-75
2021/12/08 00:04:45;;;;;;;;;;;0.80;84.00;;;;;;5081403;28;19946;-75
2021/12/08 00:07:11;;;;;;;;;;;0.80;84.10;;;;;;5076457;28;19945;-75
2021/12/08 00:14:52;;;;;;;;;;;0.70;83.50;;;;;;5081255;28;19948;-75
2021/12/08 00:17:18;;;;;;;;;;;0.60;83.40;;;;;;5081252;28;20396;-75
2021/12/08 00:19:43;;;;;;;;;;;0.50;83.70;;;;;;5081327;28;19947;-75
2021/12/08 00:22:09;;;;;;;;;;;0.30;84.30;;;;;;5062864;28;19991;-75
2021/12/08 00:24:35;;;;;;;;;;;0.30;84.60;;;;;;5081425;28;19944;-75
2021/12/08 00:27:00;;;;;;;;;;;0.20;84.90;;;;;;5080880;28;20020;-75
2021/12/08 00:29:26;;;;;;;;;;;0.20;85.50;;;;;;5092726;28;20074;-75
2021/12/08 00:31:51;;;;;;;;;;;0.10;86.00;;;;;;5101545;28;20274;-75
2021/12/08 00:34:17;;;;;;;;;;;0.10;86.10;;;;;;5101035;28;20378;-75
2021/12/08 00:36:46;;;;;;;;;;;0.10;86.30;;;;;;5101001;28;20206;-75
2021/12/08 00:39:12;;;;;;;;;;;0.10;86.80;;;;;;5079201;28;19988;-75
2021/12/08 00:41:38;;;;;;;;;;;0.10;86.90;;;;;;5081225;28;19949;-75
2021/12/08 00:44:04;;;;;;;;;;;0.10;87.10;;;;;;5076920;28;19953;-75
2021/12/08 00:46:30;;;;;;;;;;;0.10;87.20;;;;;;5080391;28;19998;-75
2021/12/08 00:48:55;;;;;;;;;;;0.10;87.30;;;;;;5080582;28;19947;-74
2021/12/08 00:51:21;;;;;;;;;;;0.20;87.30;;;;;;5081066;28;19943;-74
2021/12/08 00:53:47;;;;;;;;;;;0.30;87.00;;;;;;5080818;28;19950;-74
2021/12/08 00:56:13;;;;;;;;;;;0.40;86.60;;;;;;5080411;28;20010;-74
2021/12/08 00:58:39;;;;;;;;;;;0.50;86.30;;;;;;5080787;28;19949;-74
2021/12/08 01:01:07;;;;;;;;;;;0.50;86.10;;;;;;5080104;28;19985;-73
2021/12/08 01:03:33;;;;;;;;;;;0.50;86.00;;;;;;5080628;28;19948;-73
2021/12/08 01:05:59;;;;;;;;;;;0.50;86.10;;;;;;5080430;28;20352;-73
2021/12/08 01:08:25;;;;;;;;;;;0.50;86.20;;;;;;5073796;28;20310;-73
2021/12/08 01:10:52;;;;;;;;;;;0.50;86.20;;;;;;5080262;28;20047;-74
2021/12/08 01:13:18;;;;;;;;;;;0.50;86.20;;;;;;5080082;28;19947;-74
2021/12/08 01:15:46;;;;;;;;;;;0.50;86.20;;;;;;5080148;28;19958;-74
2021/12/08 01:18:12;;;;;;;;;;;0.50;86.20;;;;;;5080124;28;19956;-74
2021/12/08 01:20:37;;;;;;;;;;;0.50;86.10;;;;;;5080074;28;19992;-76
2021/12/08 01:23:04;;;;;;;;;;;0.50;86.10;;;;;;5080001;28;19948;-76
2021/12/08 01:25:29;;;;;;;;;;;0.40;86.00;;;;;;5079638;28;20429;-76
2021/12/08 01:27:55;;;;;;;;;;;0.50;85.90;;;;;;5079839;28;19953;-76
2021/12/08 01:30:21;;;;;;;;;;;0.50;85.90;;;;;;5077799;28;19951;-76
2021/12/08 01:32:46;;;;;;;;;;;0.50;85.80;;;;;;5080052;28;20552;-76
2021/12/08 01:35:12;;;;;;;;;;;0.50;85.80;;;;;;5079762;28;19947;-76
2021/12/08 01:37:38;;;;;;;;;;;0.50;85.90;;;;;;5078557;28;20012;-76
2021/12/08 01:40:05;;;;;;;;;;;0.50;86.00;;;;;;5100663;22;19986;-76
2021/12/08 01:42:36;;;;;;;;;;;0.50;86.00;;;;;;5099585;28;19951;-76
2021/12/08 01:47:47;;;;;;;;;;;0.50;86.20;;;;;;5099664;28;19995;-76
2021/12/08 01:50:12;;;;;;;;;;;0.60;86.20;;;;;;5099740;28;19954;-76
2021/12/08 01:52:39;;;;;;;;;;;0.60;86.30;;;;;;5099577;28;19952;-76
2021/12/08 01:55:06;;;;;;;;;;;0.60;86.40;;;;;;5081084;28;20322;-76
2021/12/08 01:57:32;;;;;;;;;;;0.60;86.60;;;;;;5082778;28;20015;-76
2021/12/08 01:59:58;;;;;;;;;;;0.50;86.20;;;;;;5079202;28;20209;-76
2021/12/08 02:02:23;;;;;;;;;;;0.50;85.90;;;;;;5094609;28;19952;-76
2021/12/08 02:04:49;;;;;;;;;;;0.50;85.20;;;;;;5079102;28;19941;-76
2021/12/08 02:07:15;;;;;;;;;;;0.50;84.90;;;;;;5079937;28;19968;-76
2021/12/08 02:09:42;;;;;;;;;;;0.50;84.90;;;;;;5089936;28;19949;-76
2021/12/08 02:12:09;;;;;;;;;;;0.60;85.30;;;;;;5084361;28;20037;-76
2021/12/08 02:14:34;;;;;;;;;;;0.60;85.70;;;;;;5060893;28;20037;-76
2021/12/08 02:17:00;;;;;;;;;;;0.50;85.60;;;;;;5103208;28;19968;-76
2021/12/08 02:19:26;;;;;;;;;;;0.50;85.00;;;;;;5103528;28;20035;-76
2021/12/08 02:21:54;;;;;;;;;;;0.30;84.90;;;;;;5103521;28;19953;-76
2021/12/08 02:24:20;;;;;;;;;;;0.30;85.00;;;;;;5093298;28;20453;-76
2021/12/08 02:26:47;;;;;;;;;;;0.40;85.20;;;;;;5096609;28;19969;-75
2021/12/08 02:29:17;;;;;;;;;;;0.40;85.70;;;;;;5103537;28;19990;-76
2021/12/08 02:46:36;;;;;;;;;;;0.40;86.00;;;;;;5103463;28;19944;-76
2021/12/08 02:48:14;;;;;;;;;;;0.50;86.00;;;;;;5082595;28;19994;-76
2021/12/08 02:50:41;;;;;;;;;;;0.60;85.80;;;;;;5082211;28;20041;-76
2021/12/08 02:53:07;;;;;;;;;;;0.70;85.60;;;;;;5083257;28;19992;-76
2021/12/08 02:55:33;;;;;;;;;;;0.80;85.40;;;;;;5080986;28;19957;-76
2021/12/08 02:58:02;;;;;;;;;;;0.90;85.50;;;;;;5084379;28;20032;-75
2021/12/08 03:00:31;;;;;;;;;;;0.90;85.50;;;;;;5084206;28;20203;-75
2021/12/08 03:02:58;;;;;;;;;;;1.00;85.00;;;;;;5102628;28;20310;-75
2021/12/08 03:05:25;;;;;;;;;;;1.10;84.10;;;;;;5103002;28;19950;-76
2021/12/08 03:07:51;;;;;;;;;;;1.10;84.00;;;;;;5096940;28;19941;-76
2021/12/08 03:10:19;;;;;;;;;;;1.20;83.80;;;;;;5102912;28;19948;-75
2021/12/08 03:12:45;;;;;;;;;;;1.20;83.50;;;;;;5084622;28;20038;-76
2021/12/08 03:15:11;;;;;;;;;;;1.20;83.20;;;;;;5103048;28;20318;-76
2021/12/08 03:17:37;;;;;;;;;;;1.30;82.80;;;;;;5102142;28;20013;-76
2021/12/08 03:20:08;;;;;;;;;;;1.20;83.40;;;;;;5102738;28;20023;-76
2021/12/08 03:22:38;;;;;;;;;;;1.20;84.00;;;;;;5102755;28;19953;-76
2021/12/08 03:25:06;;;;;;;;;;;1.10;85.10;;;;;;5102815;28;19944;-76
2021/12/08 03:27:39;;;;;;;;;;;1.00;85.10;;;;;;5102179;28;19971;-76
2021/12/08 03:30:16;;;;;;;;;;;1.20;85.50;;;;;;5083266;28;19951;-76
2021/12/08 03:32:41;;;;;;;;;;;1.30;85.20;;;;;;5093429;28;19947;-76
2021/12/08 03:35:09;;;;;;;;;;;1.30;84.80;;;;;;5102621;28;20504;-76
2021/12/08 03:37:37;;;;;;;;;;;1.20;84.50;;;;;;5084499;28;19975;-76
2021/12/08 03:40:05;;;;;;;;;;;1.10;84.20;;;;;;5102267;28;19974;-76
2021/12/08 03:42:35;;;;;;;;;;;1.00;83.70;;;;;;5102787;28;19944;-76
2021/12/08 03:45:02;;;;;;;;;;;1.10;84.00;;;;;;5084317;28;20044;-76
2021/12/08 03:47:29;;;;;;;;;;;1.20;83.90;;;;;;5102338;28;19953;-76
2021/12/08 03:49:57;;;;;;;;;;;1.20;82.50;;;;;;5102595;28;19940;-76
2021/12/08 03:52:22;;;;;;;;;;;1.30;82.20;;;;;;5102481;28;19973;-76
2021/12/08 03:54:48;;;;;;;;;;;1.50;82.10;;;;;;5101955;28;19937;-76
2021/12/08 03:57:13;;;;;;;;;;;1.60;83.10;;;;;;5083446;28;20063;-76
2021/12/08 03:59:39;;;;;;;;;;;1.50;83.40;;;;;;5101843;28;19939;-76
2021/12/08 04:02:04;;;;;;;;;;;1.50;83.50;;;;;;5083275;28;19941;-76
2021/12/08 04:04:40;;;;;;;;;;;1.50;83.90;;;;;;5101560;28;19956;-76
2021/12/08 04:07:05;;;;;;;;;;;1.60;84.00;;;;;;5097934;28;20037;-76
2021/12/08 04:09:36;;;;;;;;;;;1.60;83.80;;;;;;5099249;28;19951;-76
2021/12/08 04:12:02;;;;;;;;;;;1.50;83.90;;;;;;5101634;28;20314;-76
2021/12/08 04:14:29;;;;;;;;;;;1.50;83.70;;;;;;5083515;28;19942;-76
2021/12/08 04:16:57;;;;;;;;;;;1.70;83.50;;;;;;5101756;28;20441;-76
2021/12/08 04:19:23;;;;;;;;;;;1.60;83.50;;;;;;5101680;28;19940;-76
2021/12/08 04:21:50;;;;;;;;;;;1.70;83.50;;;;;;5101489;28;20057;-76
2021/12/08 04:24:16;;;;;;;;;;;1.70;83.50;;;;;;5102187;28;20384;-76
2021/12/08 04:26:44;;;;;;;;;;;1.60;84.20;;;;;;5100806;28;19967;-76
2021/12/08 04:29:11;;;;;;;;;;;1.60;84.70;;;;;;5101781;28;19998;-76
2021/12/08 04:31:38;;;;;;;;;;;1.60;85.10;;;;;;5101585;28;20459;-76
2021/12/08 04:34:06;;;;;;;;;;;1.50;84.50;;;;;;5100743;28;20371;-76
2021/12/08 04:36:38;;;;;;;;;;;1.50;83.80;;;;;;5101208;28;19967;-76
2021/12/08 04:39:09;;;;;;;;;;;1.50;83.50;;;;;;5081732;28;19991;-75
2021/12/08 04:41:40;;;;;;;;;;;1.40;82.90;;;;;;5082966;28;20070;-75
2021/12/08 04:44:35;;;;;;;;;;;1.40;82.70;;;;;;5101236;28;19939;-76
2021/12/08 04:52:10;;;;;;;;;;;1.60;80.60;;;;;;5100977;28;20930;-76
2021/12/08 05:08:00;;;;;;;;;;;2.00;77.10;;;;;;5094873;28;20422;-76
2021/12/08 05:10:32;;;;;;;;;;;2.10;77.10;;;;;;5100444;28;20434;-76
2021/12/08 05:12:59;;;;;;;;;;;2.20;76.70;;;;;;5100712;28;19948;-75
2021/12/08 05:15:26;;;;;;;;;;;2.20;76.00;;;;;;5082283;28;19957;-76
2021/12/08 05:18:09;;;;;;;;;;;2.20;75.70;;;;;;5082015;28;19975;-76
2021/12/08 05:20:42;;;;;;;;;;;2.20;75.80;;;;;;5082069;28;19953;-76
2021/12/08 05:23:13;;;;;;;;;;;2.20;75.50;;;;;;5100787;28;20477;-76
2021/12/08 05:25:41;;;;;;;;;;;2.30;75.10;;;;;;5081170;28;20543;-76
2021/12/08 05:28:08;;;;;;;;;;;2.30;74.80;;;;;;5100545;28;19948;-76
2021/12/08 05:30:40;;;;;;;;;;;2.20;74.70;;;;;;5100314;28;19943;-76
2021/12/08 05:33:06;;;;;;;;;;;2.20;75.00;;;;;;5100501;28;19958;-75
2021/12/08 05:35:31;;;;;;;;;;;2.30;75.10;;;;;;5100249;28;20046;-76
2021/12/08 05:37:57;;;;;;;;;;;2.30;75.00;;;;;;5082015;28;19969;-76
2021/12/08 05:40:25;;;;;;;;;;;2.40;74.90;;;;;;5099980;28;19981;-76
2021/12/08 05:42:51;;;;;;;;;;;2.50;74.60;;;;;;5099647;28;19937;-76
2021/12/08 05:45:18;;;;;;;;;;;2.50;74.40;;;;;;5081628;28;19948;-76
2021/12/08 05:47:44;;;;;;;;;;;2.50;74.20;;;;;;5099928;28;20009;-76
2021/12/08 05:50:11;;;;;;;;;;;2.50;74.10;;;;;;5081521;28;19948;-76
2021/12/08 05:52:37;;;;;;;;;;;2.50;74.10;;;;;;5099914;28;19971;-76
2021/12/08 05:55:04;;;;;;;;;;;2.50;74.20;;;;;;5099724;28;20411;-76
2021/12/08 05:57:33;;;;;;;;;;;2.50;74.40;;;;;;5081317;28;19974;-76
2021/12/08 05:59:59;;;;;;;;;;;2.60;73.90;;;;;;5098667;28;19953;-76
2021/12/08 06:02:26;;;;;;;;;;;2.70;74.10;;;;;;5099811;28;20052;-75
2021/12/08 06:04:52;;;;;;;;;;;2.70;73.60;;;;;;5099847;28;19952;-76
2021/12/08 06:07:21;;;;;;;;;;;2.70;73.50;;;;;;5095188;28;20010;-76
2021/12/08 06:09:47;;;;;;;;;;;2.70;73.50;;;;;;5098671;28;19948;-76
2021/12/08 06:12:13;;;;;;;;;;;2.70;73.60;;;;;;5099943;28;19946;-76
2021/12/08 06:14:38;;;;;;;;;;;2.90;73.60;;;;;;5100101;28;20274;-76
2021/12/08 06:17:07;;;;;;;;;;;2.90;73.10;;;;;;5098256;28;20342;-76
2021/12/08 06:19:33;;;;;;;;;;;2.80;73.00;;;;;;5099370;28;19986;-76
2021/12/08 06:21:59;;;;;;;;;;;2.80;73.50;;;;;;5099731;28;19997;-76
2021/12/08 06:24:25;;;;;;;;;;;2.80;73.80;;;;;;5081883;28;19981;-76
2021/12/08 06:26:51;;;;;;;;;;;2.80;73.70;;;;;;5099177;28;20084;-76
2021/12/08 06:29:18;;;;;;;;;;;2.90;73.40;;;;;;5081312;28;20415;-76
2021/12/08 06:31:44;;;;;;;;;;;2.80;73.50;;;;;;5099666;28;19944;-76
2021/12/08 06:34:10;;;;;;;;;;;2.70;74.60;;;;;;5099576;28;20002;-76
2021/12/08 06:36:42;;;;;;;;;;;2.70;75.60;;;;;;5100021;28;19969;-76
2021/12/08 06:39:10;;;;;;;;;;;2.60;75.80;;;;;;5099618;28;19984;-76
2021/12/08 06:41:38;;;;;;;;;;;2.60;76.30;;;;;;5080997;28;19969;-76
2021/12/08 06:44:10;;;;;;;;;;;2.70;76.30;;;;;;5099744;28;19949;-76
2021/12/08 06:46:36;;;;;;;;;;;2.80;75.70;;;;;;5099378;28;19943;-76
2021/12/08 06:49:03;;;;;;;;;;;3.00;75.20;;;;;;5100248;28;19953;-76
2021/12/08 06:51:35;;;;;;;;;;;3.10;74.40;;;;;;5080998;28;20274;-76
2021/12/08 06:54:04;;;;;;;;;;;3.40;73.20;;;;;;5081177;28;19991;-76
2021/12/08 06:56:32;;;;;;;;;;;3.50;72.50;;;;;;5099320;28;19977;-76
2021/12/08 06:59:00;;;;;;;;;;;3.50;71.20;;;;;;5099545;28;19941;-76
2021/12/08 07:06:58;;;;;;;;;;;3.40;71.50;;;;;;5100373;28;20333;-76
2021/12/08 07:09:26;;;;;;;;;;;3.40;71.40;;;;;;5100587;28;19944;-76
2021/12/08 07:11:52;;;;;;;;;;;3.40;71.80;;;;;;5103003;28;19946;-76
2021/12/08 07:14:19;;;;;;;;;;;3.30;72.10;;;;;;5102812;28;20043;-76
2021/12/08 07:16:45;;;;;;;;;;;3.30;72.30;;;;;;5102901;28;19968;-76
2021/12/08 07:19:26;;;;;;;;;;;3.30;72.50;;;;;;5102596;28;20059;-76
2021/12/08 07:21:52;;;;;;;;;;;3.30;72.80;;;;;;5102402;28;19948;-76
2021/12/08 07:24:21;;;;;;;;;;;3.30;73.10;;;;;;5102355;28;19947;-76
2021/12/08 07:26:47;;;;;;;;;;;3.40;73.30;;;;;;5101191;28;19968;-76
2021/12/08 07:29:14;;;;;;;;;;;3.60;73.30;;;;;;5102392;28;20378;-75
2021/12/08 07:32:02;;;;;;;;;;;3.90;72.60;;;;;;5101915;28;19948;-75
2021/12/08 07:34:28;;;;;;;;;;;4.00;70.40;;;;;;5101545;28;19956;-75
2021/12/08 07:36:56;;;;;;;;;;;4.10;70.20;;;;;;5084094;28;20024;-76
2021/12/08 07:39:27;;;;;;;;;;;4.10;70.40;;;;;;5100942;28;19986;-76
2021/12/08 07:41:54;;;;;;;;;;;4.20;70.20;;;;;;5080876;28;20081;-76
2021/12/08 07:44:21;;;;;;;;;;;4.20;69.70;;;;;;5083390;28;20336;-75
2021/12/08 07:46:49;;;;;;;;;;;4.20;69.70;;;;;;5102026;28;19953;-75
2021/12/08 07:49:17;;;;;;;;;;;4.20;69.40;;;;;;5083323;28;20377;-75
2021/12/08 07:51:47;;;;;;;;;;;4.20;68.70;;;;;;5083920;28;19957;-75
2021/12/08 07:54:14;;;;;;;;;;;4.30;68.70;;;;;;5102138;28;19944;-75
2021/12/08 07:56:43;;;;;;;;;;;4.40;68.30;;;;;;5101142;28;20287;-76
2021/12/08 07:59:10;;;;;;;;;;;4.30;67.90;;;;;;5084415;28;19943;-75
2021/12/08 08:01:38;;;;;;;;;;;4.30;68.30;;;;;;5102414;28;19946;-75
2021/12/08 08:04:06;;;;;;;;;;;4.40;68.40;;;;;;5101419;28;19940;-75
2021/12/08 08:06:34;;;;;;;;;;;4.50;68.00;;;;;;5081436;28;20112;-76
2021/12/08 08:09:00;;;;;;;;;;;4.50;66.80;;;;;;5097671;28;20276;-76
2021/12/08 08:11:28;;;;;;;;;;;4.50;66.50;;;;;;5101351;28;19947;-75
2021/12/08 08:13:54;;;;;;;;;;;4.60;66.70;;;;;;5100273;28;19940;-75
2021/12/08 08:16:23;;;;;;;;;;;4.80;64.60;;;;;;5101621;28;19946;-75
2021/12/08 08:18:53;;;;;;;;;;;4.90;63.70;;;;;;5083190;28;19940;-75
2021/12/08 08:21:21;;;;;;;;;;;4.80;63.60;;;;;;5101885;28;20033;-75
2021/12/08 08:23:47;;;;;;;;;;;4.60;64.80;;;;;;5101488;28;19947;-75
2021/12/08 08:26:14;;;;;;;;;;;4.50;64.90;;;;;;5101199;28;19956;-75
2021/12/08 08:28:40;;;;;;;;;;;4.50;64.40;;;;;;5101735;28;19952;-75
2021/12/08 08:31:11;;;;;;;;;;;4.50;64.50;;;;;;5101487;28;19991;-75
2021/12/08 08:33:38;;;;;;;;;;;4.60;64.00;;;;;;5101572;28;19950;-75
2021/12/08 08:36:07;;;;;;;;;;;4.60;63.70;;;;;;5101366;28;20390;-75
2021/12/08 08:38:35;;;;;;;;;;;4.50;64.00;;;;;;5100594;28;19964;-75
2021/12/08 08:41:05;;;;;;;;;;;4.50;64.20;;;;;;5101122;28;20231;-75
2021/12/08 08:43:31;;;;;;;;;;;4.60;64.90;;;;;;5101294;28;20034;-75
2021/12/08 08:46:06;;;;;;;;;;;4.60;65.20;;;;;;5100792;28;20027;-76
2021/12/08 08:48:34;;;;;;;;;;;4.60;65.20;;;;;;5082681;28;20601;-75
2021/12/08 08:51:04;;;;;;;;;;;4.70;65.20;;;;;;5100556;28;20421;-75
2021/12/08 08:53:31;;;;;;;;;;;4.70;65.00;;;;;;5081878;28;20382;-76
2021/12/08 08:56:00;;;;;;;;;;;4.80;64.10;;;;;;5081778;28;20033;-75
2021/12/08 08:58:28;;;;;;;;;;;4.70;64.40;;;;;;5100331;28;19964;-75
2021/12/08 09:00:57;;;;;;;;;;;4.60;65.90;;;;;;5081440;28;20400;-75
2021/12/08 09:03:24;;;;;;;;;;;4.60;66.70;;;;;;5098619;28;20370;-75
2021/12/08 09:05:53;;;;;;;;;;;4.40;68.00;;;;;;5099682;28;19998;-76
2021/12/08 09:08:20;;;;;;;;;;;4.30;69.20;;;;;;5093882;28;19943;-75
2021/12/08 09:10:46;;;;;;;;;;;4.40;69.80;;;;;;5100087;28;20033;-76
2021/12/08 09:13:20;;;;;;;;;;;4.40;69.90;;;;;;5099927;28;20766;-75
2021/12/08 09:15:49;;;;;;;;;;;4.30;69.90;;;;;;5081702;28;20392;-75
2021/12/08 09:18:18;;;;;;;;;;;4.40;69.90;;;;;;5100525;28;19951;-75
2021/12/08 09:20:44;;;;;;;;;;;4.40;69.00;;;;;;5100181;28;19958;-75
2021/12/08 09:23:22;;;;;;;;;;;4.40;67.60;;;;;;5100020;28;19956;-75
2021/12/08 09:25:59;;;;;;;;;;;4.40;68.40;;;;;;5099697;28;20457;-75
2021/12/08 09:28:29;;;;;;;;;;;4.40;68.30;;;;;;5099832;28;20122;-75
2021/12/08 09:31:07;;;;;;;;;;;4.50;68.40;;;;;;5100134;28;19948;-75
2021/12/08 09:33:54;;;;;;;;;;;4.70;67.60;;;;;;5081733;28;20393;-75
2021/12/08 09:36:23;;;;;;;;;;;4.80;67.00;;;;;;5099989;28;20426;-75
2021/12/08 09:38:55;;;;;;;;;;;4.90;66.30;;;;;;5102899;22;19990;-75
2021/12/08 09:41:26;;;;;;;;;;;5.00;65.60;;;;;;5061407;28;20036;-75
2021/12/08 09:43:55;;;;;;;;;;;4.90;65.60;;;;;;5079386;28;19940;-75
2021/12/08 09:46:46;;;;;;;;;;;4.90;66.70;;;;;;5079491;28;20449;-75
2021/12/08 09:49:15;;;;;;;;;;;4.90;66.90;;;;;;5076386;28;19960;-75
2021/12/08 09:51:41;;;;;;;;;;;4.70;68.70;;;;;;5079753;28;19986;-75
2021/12/08 09:54:07;;;;;;;;;;;4.70;69.10;;;;;;5079394;28;20006;-75
2021/12/08 09:56:33;;;;;;;;;;;4.70;68.90;;;;;;5087213;28;20061;-75
2021/12/08 09:59:00;;;;;;;;;;;4.60;69.20;;;;;;5081028;28;19949;-76
2021/12/08 10:01:27;;;;;;;;;;;4.60;69.40;;;;;;5099602;28;20035;-75
2021/12/08 10:03:55;;;;;;;;;;;4.50;70.10;;;;;;5099838;28;19959;-75
2021/12/08 10:06:21;;;;;;;;;;;4.50;71.00;;;;;;5099144;28;20033;-75
2021/12/08 10:08:47;;;;;;;;;;;4.50;71.80;;;;;;5094782;28;19985;-75
2021/12/08 10:11:14;;;;;;;;;;;4.40;71.40;;;;;;5097456;28;19949;-75
2021/12/08 10:13:40;;;;;;;;;;;4.40;72.70;;;;;;5061496;28;20581;-75
2021/12/08 10:16:07;;;;;;;;;;;4.30;73.40;;;;;;5079374;28;19955;-75
2021/12/08 10:18:32;;;;;;;;;;;4.30;73.90;;;;;;5079208;28;19962;-75
2021/12/08 10:20:58;;;;;;;;;;;4.40;73.80;;;;;;5079071;28;20029;-75
2021/12/08 10:23:28;;;;;;;;;;;4.50;72.90;;;;;;5079192;28;19949;-75
2021/12/08 10:25:56;;;;;;;;;;;4.60;72.80;;;;;;5060487;28;20105;-75
2021/12/08 10:28:25;;;;;;;;;;;4.60;73.50;;;;;;5083398;28;20006;-76
2021/12/08 10:30:54;;;;;;;;;;;4.50;73.60;;;;;;5096258;28;20002;-75
2021/12/08 10:33:37;;;;;;;;;;;4.50;74.30;;;;;;5060596;28;19976;-75
2021/12/08 10:36:15;;;;;;;;;;;4.50;74.50;;;;;;5061168;28;19939;-75
2021/12/08 10:38:41;;;;;;;;;;;4.40;75.40;;;;;;5083324;28;19950;-75
2021/12/08 10:41:07;;;;;;;;;;;4.40;76.10;;;;;;5082381;28;19950;-75
2021/12/08 10:43:32;;;;;;;;;;;4.50;75.70;;;;;;5082755;28;19946;-75
2021/12/08 10:46:16;;;;;;;;;;;4.50;76.10;;;;;;5100842;28;20281;-75
2021/12/08 10:48:45;;;;;;;;;;;4.60;76.20;;;;;;5103393;28;19942;-75
2021/12/08 10:54:25;;;;;;;;;;;4.60;76.00;;;;;;5103572;28;19954;-75
2021/12/08 10:56:56;;;;;;;;;;;4.70;76.40;;;;;;5073415;28;19965;-75
2021/12/08 10:59:22;;;;;;;;;;;4.70;76.40;;;;;;5064127;28;19946;-75
2021/12/08 11:01:48;;;;;;;;;;;4.80;76.10;;;;;;5072616;28;19949;-75
2021/12/08 11:04:16;;;;;;;;;;;4.70;77.40;;;;;;5102515;28;19961;-75
2021/12/08 11:06:42;;;;;;;;;;;4.50;77.30;;;;;;5083275;28;20367;-75
2021/12/08 11:09:15;;;;;;;;;;;4.40;78.80;;;;;;5075828;28;20466;-75
2021/12/08 11:11:43;;;;;;;;;;;4.20;80.10;;;;;;5082303;28;19952;-75
2021/12/08 11:14:10;;;;;;;;;;;4.10;81.50;;;;;;5088135;28;19949;-75
2021/12/08 11:16:37;;;;;;;;;;;4.10;82.00;;;;;;5091152;28;20002;-75
2021/12/08 11:19:06;;;;;;;;;;;3.90;82.70;;;;;;5103138;28;19971;-75
2021/12/08 11:21:37;;;;;;;;;;;3.90;83.20;;;;;;5092203;28;20367;-75
2021/12/08 11:24:35;;;;;;;;;;;3.90;83.30;;;;;;5096634;28;19987;-75
2021/12/08 11:27:03;;;;;;;;;;;3.90;83.80;;;;;;5081602;28;19996;-75
2021/12/08 11:29:29;;;;;;;;;;;4.00;84.20;;;;;;5088244;28;20440;-75
2021/12/08 11:31:59;;;;;;;;;;;4.10;84.40;;;;;;5101977;28;19943;-75
2021/12/08 11:34:26;;;;;;;;;;;4.10;84.50;;;;;;5102636;28;19954;-76
2021/12/08 11:37:00;;;;;;;;;;;4.10;84.80;;;;;;5101985;28;20056;-75
2021/12/08 11:39:31;;;;;;;;;;;4.10;84.60;;;;;;5083472;28;20472;-75
2021/12/08 11:41:59;;;;;;;;;;;4.10;84.70;;;;;;5063901;28;20033;-75
2021/12/08 11:44:26;;;;;;;;;;;4.10;85.00;;;;;;5082580;28;20259;-75
2021/12/08 11:46:53;;;;;;;;;;;4.10;85.40;;;;;;5081874;28;20026;-75
2021/12/08 11:49:20;;;;;;;;;;;4.10;85.60;;;;;;5063417;28;20368;-75
2021/12/08 11:51:51;;;;;;;;;;;4.10;85.80;;;;;;5085974;28;19947;-75
2021/12/08 11:54:26;;;;;;;;;;;3.90;86.40;;;;;;5085185;28;20377;-75
2021/12/08 11:56:52;;;;;;;;;;;3.90;86.70;;;;;;5075470;28;20006;-75
2021/12/08 11:59:18;;;;;;;;;;;3.90;86.80;;;;;;5061385;28;19991;-75
2021/12/08 12:01:45;;;;;;;;;;;3.90;86.80;;;;;;5063044;28;19976;-75
2021/12/08 12:04:11;;;;;;;;;;;3.90;87.00;;;;;;5081007;28;19946;-75
2021/12/08 12:06:37;;;;;;;;;;;3.80;87.10;;;;;;5060956;28;20252;-75
2021/12/08 12:09:04;;;;;;;;;;;3.80;87.30;;;;;;5087745;28;20331;-75
2021/12/08 12:11:30;;;;;;;;;;;3.90;87.30;;;;;;5082804;28;20167;-75
2021/12/08 12:13:57;;;;;;;;;;;4.00;87.20;;;;;;5101218;28;20407;-75
2021/12/08 12:16:22;;;;;;;;;;;4.00;87.20;;;;;;5101246;28;20057;-75
2021/12/08 12:18:50;;;;;;;;;;;4.10;86.70;;;;;;5101674;28;20507;-75
2021/12/08 12:21:25;;;;;;;;;;;4.20;86.30;;;;;;5101246;28;19999;-75
2021/12/08 12:24:17;;;;;;;;;;;4.10;86.50;;;;;;5083283;28;19982;-75
2021/12/08 12:27:01;;;;;;;;;;;4.10;87.00;;;;;;5060520;28;19965;-75
2021/12/08 12:29:36;;;;;;;;;;;4.00;87.40;;;;;;5081091;28;20051;-75
2021/12/08 12:32:01;;;;;;;;;;;4.00;87.60;;;;;;5080640;28;20350;-75
2021/12/08 12:34:38;;;;;;;;;;;4.10;87.80;;;;;;5081084;28;19953;-75
2021/12/08 12:37:15;;;;;;;;;;;4.10;87.70;;;;;;5062617;28;20064;-75
2021/12/08 12:39:46;;;;;;;;;;;4.10;87.90;;;;;;5081096;28;19984;-75
2021/12/08 12:42:14;;;;;;;;;;;4.10;88.00;;;;;;5080113;28;20283;-75
2021/12/08 12:44:41;;;;;;;;;;;4.10;88.10;;;;;;5062361;28;19941;-75
2021/12/08 12:47:12;;;;;;;;;;;4.10;88.20;;;;;;5080820;28;20517;-75
2021/12/08 12:49:44;;;;;;;;;;;4.00;88.40;;;;;;5081145;28;20207;-75
2021/12/08 12:52:11;;;;;;;;;;;4.10;88.70;;;;;;5078917;28;20004;-75
2021/12/08 12:54:39;;;;;;;;;;;4.10;88.90;;;;;;5081309;28;19946;-76
2021/12/08 12:57:07;;;;;;;;;;;4.10;89.00;;;;;;5092513;28;19969;-75
2021/12/08 12:59:42;;;;;;;;;;;4.20;89.10;;;;;;5077447;28;20420;-75
2021/12/08 13:02:14;;;;;;;;;;;4.20;89.10;;;;;;5091545;28;20388;-75
2021/12/08 13:04:58;;;;;;;;;;;4.30;89.00;;;;;;5100787;28;20319;-75
2021/12/08 13:07:28;;;;;;;;;;;4.50;88.90;;;;;;5077290;28;20334;-75
2021/12/08 13:09:54;;;;;;;;;;;4.50;88.60;;;;;;5099904;28;19951;-75
2021/12/08 13:12:20;;;;;;;;;;;4.60;88.50;;;;;;5100658;28;19948;-75
2021/12/08 13:14:47;;;;;;;;;;;4.60;88.40;;;;;;5077328;28;20541;-75
2021/12/08 13:17:14;;;;;;;;;;;4.50;88.60;;;;;;5072816;28;20477;-76
2021/12/08 13:19:41;;;;;;;;;;;4.50;88.90;;;;;;5087149;28;19950;-76
2021/12/08 13:22:07;;;;;;;;;;;4.50;89.40;;;;;;5080329;28;19947;-75
2021/12/08 13:24:43;;;;;;;;;;;4.60;89.30;;;;;;5097616;28;19945;-76
2021/12/08 13:27:13;;;;;;;;;;;4.70;89.00;;;;;;5100368;28;19955;-75
2021/12/08 13:29:45;;;;;;;;;;;4.60;89.10;;;;;;5100328;28;20070;-76
2021/12/08 13:32:15;;;;;;;;;;;4.60;89.30;;;;;;5070877;28;19950;-75
2021/12/08 13:34:45;;;;;;;;;;;4.50;89.50;;;;;;5079826;28;19949;-76
2021/12/08 13:37:14;;;;;;;;;;;4.60;89.60;;;;;;5079960;28;19971;-76
2021/12/08 13:39:41;;;;;;;;;;;4.50;89.90;;;;;;5080179;28;20428;-76
2021/12/08 13:42:11;;;;;;;;;;;4.50;90.20;;;;;;5080119;28;19945;-76
2021/12/08 13:44:38;;;;;;;;;;;4.50;90.30;;;;;;5080197;28;19957;-76
2021/12/08 13:47:06;;;;;;;;;;;4.50;90.40;;;;;;5079850;28;19940;-76
2021/12/08 13:50:04;;;;;;;;;;;4.50;90.40;;;;;;5074541;28;19942;-76
2021/12/08 13:52:31;;;;;;;;;;;4.50;90.30;;;;;;5064844;28;20288;-76
2021/12/08 13:55:14;;;;;;;;;;;4.50;90.30;;;;;;5100116;28;19945;-76
2021/12/08 13:57:42;;;;;;;;;;;4.60;89.90;;;;;;5082079;28;19974;-75
2021/12/08 14:00:17;;;;;;;;;;;4.60;89.90;;;;;;5079731;28;20410;-75
2021/12/08 14:02:42;;;;;;;;;;;4.60;89.80;;;;;;5061267;28;19952;-76
2021/12/08 14:05:10;;;;;;;;;;;4.60;90.00;;;;;;5061011;28;19960;-75
2021/12/08 14:07:37;;;;;;;;;;;4.50;90.20;;;;;;5073723;28;19956;-75
2021/12/08 14:10:05;;;;;;;;;;;4.50;90.20;;;;;;5079270;28;19936;-75
2021/12/08 14:12:45;;;;;;;;;;;4.50;90.30;;;;;;5064086;28;20022;-73
2021/12/08 14:15:32;;;;;;;;;;;4.40;90.40;;;;;;5083368;28;20322;-75
2021/12/08 14:18:16;;;;;;;;;;;4.50;90.60;;;;;;5083366;28;19988;-74
2021/12/08 14:20:44;;;;;;;;;;;4.50;90.70;;;;;;5083171;28;19948;-74
2021/12/08 14:23:09;;;;;;;;;;;4.50;90.70;;;;;;5092134;28;19951;-74
2021/12/08 14:25:38;;;;;;;;;;;4.60;90.70;;;;;;5103756;28;20074;-74
2021/12/08 14:28:22;;;;;;;;;;;4.60;90.60;;;;;;5103791;28;19955;-74
2021/12/08 14:30:47;;;;;;;;;;;4.80;90.40;;;;;;5085103;28;19952;-74
2021/12/08 14:33:21;;;;;;;;;;;4.80;89.90;;;;;;5103913;28;19949;-73
2021/12/08 14:36:13;;;;;;;;;;;4.70;89.70;;;;;;5104144;28;19977;-73
2021/12/08 14:38:39;;;;;;;;;;;4.80;89.60;;;;;;5093390;28;20217;-74
2021/12/08 14:41:24;;;;;;;;;;;4.70;89.50;;;;;;5096392;28;20138;-74
2021/12/08 14:43:52;;;;;;;;;;;4.70;89.50;;;;;;5084113;28;19948;-73
2021/12/08 14:46:21;;;;;;;;;;;4.70;89.40;;;;;;5086389;28;20001;-73
2021/12/08 14:48:53;;;;;;;;;;;4.60;89.00;;;;;;5084895;28;20386;-73
2021/12/08 14:51:21;;;;;;;;;;;4.70;89.00;;;;;;5103172;28;19947;-73
2021/12/08 14:53:47;;;;;;;;;;;4.70;88.80;;;;;;5103434;28;19990;-73
2021/12/08 14:56:12;;;;;;;;;;;4.70;88.70;;;;;;5064047;28;19943;-73
2021/12/08 14:58:39;;;;;;;;;;;4.70;88.50;;;;;;5063055;28;19993;-74
2021/12/08 15:01:06;;;;;;;;;;;4.70;88.20;;;;;;5062621;28;19947;-73
2021/12/08 15:03:37;;;;;;;;;;;4.70;88.10;;;;;;5062208;28;20028;-73
2021/12/08 15:06:03;;;;;;;;;;;4.80;87.70;;;;;;5044174;28;19935;-73
2021/12/08 15:08:28;;;;;;;;;;;4.80;87.60;;;;;;5055965;28;19941;-74
2021/12/08 15:10:54;;;;;;;;;;;4.90;87.40;;;;;;5062231;28;19945;-74
2021/12/08 15:13:25;;;;;;;;;;;4.90;87.40;;;;;;5093178;28;20402;-74
2021/12/08 15:15:56;;;;;;;;;;;4.90;87.20;;;;;;5102920;28;20191;-75
2021/12/08 15:18:23;;;;;;;;;;;5.00;87.30;;;;;;5102610;28;19966;-75
2021/12/08 15:20:50;;;;;;;;;;;5.00;87.10;;;;;;5102930;28;20021;-75
2021/12/08 15:23:24;;;;;;;;;;;5.00;87.10;;;;;;5101899;28;19951;-75
2021/12/08 15:25:51;;;;;;;;;;;5.10;87.20;;;;;;5102375;28;19959;-75
2021/12/08 15:28:22;;;;;;;;;;;5.10;87.00;;;;;;5102412;28;19939;-75
2021/12/08 15:30:49;;;;;;;;;;;5.20;86.80;;;;;;5102657;28;19945;-75